createdAt,value
2022-08-09T00:00:46.081Z,0.00
2022-08-09T00:01:43.034Z,0.00
2022-08-09T00:02:49.841Z,0.00
2022-08-09T00:04:05.984Z,0.00
2022-08-09T00:04:43.528Z,0.00
2022-08-09T00:06:16.457Z,0.00
2022-08-09T00:06:44.249Z,0.00
2022-08-09T00:07:44.907Z,0.00
2022-08-09T00:08:42.480Z,0.00
2022-08-09T00:09:42.470Z,0.00
2022-08-09T00:10:42.461Z,0.00
2022-08-09T00:12:02.839Z,0.00
2022-08-09T00:12:43.428Z,0.00
2022-08-09T00:13:42.419Z,0.00
2022-08-09T00:14:42.401Z,0.00
2022-08-09T00:15:59.389Z,0.00
2022-08-09T00:16:43.375Z,0.00
2022-08-09T00:18:07.637Z,0.00
2022-08-09T00:18:43.345Z,0.00
2022-08-09T00:19:42.328Z,0.00
2022-08-09T00:20:49.683Z,0.00
2022-08-09T00:21:56.301Z,0.00
2022-08-09T00:22:47.058Z,0.00
2022-08-09T00:23:57.051Z,0.00
2022-08-09T00:24:43.281Z,0.00
2022-08-09T00:25:42.256Z,0.00
2022-08-09T00:26:42.251Z,0.00
2022-08-09T00:27:43.102Z,0.00
2022-08-09T00:28:42.248Z,0.00
2022-08-09T00:30:23.575Z,0.00
2022-08-09T00:30:43.212Z,0.00
2022-08-09T00:31:58.349Z,0.00
2022-08-09T00:32:43.173Z,0.00
2022-08-09T00:33:50.634Z,0.00
2022-08-09T00:34:51.942Z,0.00
2022-08-09T00:35:43.791Z,0.00
2022-08-09T00:36:42.134Z,0.00
2022-08-09T00:37:42.123Z,0.00
2022-08-09T00:38:42.133Z,0.00
2022-08-09T00:40:12.147Z,0.00
2022-08-09T00:40:52.746Z,0.00
2022-08-09T00:44:14.088Z,0.00
2022-08-09T00:44:19.479Z,0.00
2022-08-09T00:44:19.798Z,0.00
2022-08-09T00:44:43.034Z,0.00
2022-08-09T00:45:50.525Z,0.00
2022-08-09T00:46:57.415Z,0.00
2022-08-09T00:47:43.006Z,0.00
2022-08-09T00:48:42.011Z,0.00
2022-08-09T00:49:43.815Z,0.00
2022-08-09T00:50:42.966Z,0.00
2022-08-09T00:51:54.628Z,0.00
2022-08-09T00:52:42.954Z,0.00
2022-08-09T00:53:41.930Z,0.00
2022-08-09T00:54:41.937Z,0.00
2022-08-09T00:56:05.340Z,0.00
2022-08-09T00:56:42.898Z,0.00
2022-08-09T00:57:41.884Z,0.00
2022-08-09T00:58:41.878Z,0.00
2022-08-09T00:59:46.478Z,0.00
2022-08-09T01:00:41.922Z,0.00
2022-08-09T01:01:44.351Z,0.00
2022-08-09T01:02:41.839Z,0.00
2022-08-09T01:03:46.357Z,0.00
2022-08-09T01:04:41.797Z,0.00
2022-08-09T01:05:46.385Z,0.00
2022-08-09T01:06:54.458Z,0.00
2022-08-09T01:08:00.121Z,0.00
2022-08-09T01:08:49.395Z,0.00
2022-08-09T01:09:42.739Z,0.00
2022-08-09T01:10:41.770Z,0.00
2022-08-09T01:11:41.724Z,0.00
2022-08-09T01:12:42.717Z,0.00
2022-08-09T01:13:58.850Z,0.00
2022-08-09T01:14:42.689Z,0.00
2022-08-09T01:15:52.033Z,0.00
2022-08-09T01:16:47.296Z,0.00
2022-08-09T01:17:42.659Z,0.00
2022-08-09T01:18:41.649Z,0.00
2022-08-09T01:20:01.703Z,0.00
2022-08-09T01:20:42.618Z,0.00
2022-08-09T01:21:45.068Z,0.00
2022-08-09T01:22:42.603Z,0.00
2022-08-09T01:24:02.180Z,0.00
2022-08-09T01:24:43.967Z,0.00
2022-08-09T01:25:42.561Z,0.00
2022-08-09T01:26:42.571Z,0.00
2022-08-09T01:27:41.531Z,0.00
2022-08-09T01:28:41.536Z,0.00
2022-08-09T01:29:55.136Z,0.00
2022-08-09T01:30:51.572Z,0.00
2022-08-09T01:32:29.782Z,0.00
2022-08-09T01:32:45.392Z,0.00
2022-08-09T01:33:41.483Z,0.00
2022-08-09T01:34:41.468Z,0.00
2022-08-09T01:35:42.392Z,0.00
2022-08-09T01:36:41.440Z,0.00
2022-08-09T01:37:42.822Z,0.00
2022-08-09T01:38:46.417Z,0.00
2022-08-09T01:39:41.459Z,0.00
2022-08-09T01:40:41.389Z,0.00
2022-08-09T01:41:53.791Z,0.00
2022-08-09T01:42:42.383Z,0.00
2022-08-09T01:43:50.042Z,0.00
2022-08-09T01:44:42.347Z,0.00
2022-08-09T01:45:45.985Z,0.00
2022-08-09T01:46:42.391Z,0.00
2022-08-09T01:47:44.507Z,0.00
2022-08-09T01:48:41.316Z,0.00
2022-08-09T01:49:41.280Z,0.00
2022-08-09T01:50:42.274Z,0.00
2022-08-09T01:51:44.377Z,0.00
2022-08-09T01:52:41.491Z,0.00
2022-08-09T01:53:41.904Z,0.00
2022-08-09T01:54:41.246Z,0.00
2022-08-09T01:55:41.217Z,0.00
2022-08-09T01:56:41.204Z,0.00
2022-08-09T01:57:45.720Z,0.00
2022-08-09T01:58:42.199Z,0.00
2022-08-09T01:59:51.733Z,0.00
2022-08-09T02:00:42.231Z,0.00
2022-08-09T02:01:59.208Z,0.00
2022-08-09T02:02:42.127Z,0.00
2022-08-09T02:03:41.139Z,0.00
2022-08-09T02:04:45.541Z,0.00
2022-08-09T02:06:03.285Z,0.00
2022-08-09T02:06:45.311Z,0.00
2022-08-09T02:08:38.849Z,0.00
2022-08-09T02:08:58.807Z,0.00
2022-08-09T02:09:42.883Z,0.00
2022-08-09T02:10:41.054Z,0.00
2022-08-09T02:11:43.784Z,0.00
2022-08-09T02:12:41.025Z,0.00
2022-08-09T02:13:41.016Z,0.00
2022-08-09T02:14:41.008Z,0.00
2022-08-09T02:15:49.283Z,0.00
2022-08-09T02:16:52.972Z,0.00
2022-08-09T02:18:00.292Z,0.00
2022-08-09T02:18:42.773Z,0.00
2022-08-09T02:19:43.347Z,0.00
2022-08-09T02:20:40.917Z,0.00
2022-08-09T02:21:40.920Z,0.00
2022-08-09T02:22:41.057Z,0.00
2022-08-09T02:23:43.116Z,0.00
2022-08-09T02:24:40.878Z,0.00
2022-08-09T02:25:42.018Z,0.00
2022-08-09T02:26:40.861Z,0.00
2022-08-09T02:27:57.486Z,0.00
2022-08-09T02:28:41.819Z,0.00
2022-08-09T02:29:40.811Z,0.00
2022-08-09T02:30:41.494Z,0.00
2022-08-09T02:31:40.809Z,0.00
2022-08-09T02:32:40.793Z,0.00
2022-08-09T02:34:07.276Z,0.00
2022-08-09T02:34:51.651Z,0.00
2022-08-09T02:36:02.119Z,0.00
2022-08-09T02:36:42.086Z,0.00
2022-08-09T02:37:40.720Z,0.00
2022-08-09T02:38:40.713Z,0.00
2022-08-09T02:39:42.846Z,0.00
2022-08-09T02:40:40.711Z,0.00
2022-08-09T02:41:40.687Z,0.00
2022-08-09T02:42:40.684Z,0.00
2022-08-09T02:43:42.565Z,0.00
2022-08-09T02:44:41.640Z,0.00
2022-08-09T02:45:40.634Z,0.00
2022-08-09T02:46:40.616Z,0.00
2022-08-09T02:47:57.326Z,0.00
2022-08-09T02:48:46.117Z,0.00
2022-08-09T02:49:41.323Z,0.00
2022-08-09T02:50:40.571Z,0.00
2022-08-09T02:51:40.869Z,0.00
2022-08-09T02:52:40.553Z,0.00
2022-08-09T02:53:43.122Z,0.00
2022-08-09T02:54:54.537Z,0.00
2022-08-09T02:55:53.775Z,0.00
2022-08-09T02:56:41.494Z,0.00
2022-08-09T02:58:00.310Z,0.00
2022-08-09T02:58:41.475Z,0.00
2022-08-09T02:59:40.464Z,0.00
2022-08-09T03:00:57.731Z,0.00
2022-08-09T03:02:05.745Z,0.00
2022-08-09T03:02:58.333Z,0.00
2022-08-09T03:04:17.415Z,0.00
2022-08-09T03:04:41.402Z,0.00
2022-08-09T03:05:40.413Z,0.00
2022-08-09T03:06:40.386Z,0.00
2022-08-09T03:07:40.366Z,0.00
2022-08-09T03:08:40.384Z,0.00
2022-08-09T03:09:42.816Z,0.00
2022-08-09T03:10:40.336Z,0.00
2022-08-09T03:12:10.443Z,0.00
2022-08-09T03:12:41.306Z,0.00
2022-08-09T03:13:43.805Z,0.00
2022-08-09T03:14:41.318Z,0.00
2022-08-09T03:16:05.763Z,0.00
2022-08-09T03:16:47.496Z,0.00
2022-08-09T03:17:41.247Z,0.00
2022-08-09T03:18:40.235Z,0.00
2022-08-09T03:19:59.711Z,0.00
2022-08-09T03:20:41.216Z,0.00
2022-08-09T03:21:40.199Z,0.00
2022-08-09T03:22:42.280Z,0.00
2022-08-09T03:23:40.179Z,0.00
2022-08-09T03:24:51.087Z,0.00
2022-08-09T03:26:03.234Z,0.00
2022-08-09T03:26:44.966Z,0.00
2022-08-09T03:27:45.209Z,0.00
2022-08-09T03:28:43.597Z,0.00
2022-08-09T03:29:57.373Z,0.00
2022-08-09T03:30:41.108Z,0.00
2022-08-09T03:31:42.697Z,0.00
2022-08-09T03:32:41.071Z,0.00
2022-08-09T03:33:53.429Z,0.00
2022-08-09T03:34:41.079Z,0.00
2022-08-09T03:36:11.761Z,0.00
2022-08-09T03:36:41.036Z,0.00
2022-08-09T03:37:56.662Z,0.00
2022-08-09T03:38:41.874Z,0.00
2022-08-09T03:39:40.051Z,0.00
2022-08-09T03:40:41.003Z,0.00
2022-08-09T03:41:45.898Z,0.00
2022-08-09T03:42:43.166Z,0.00
2022-08-09T03:43:39.969Z,0.00
2022-08-09T03:44:39.935Z,0.00
2022-08-09T03:46:05.254Z,0.00
2022-08-09T03:46:40.902Z,0.00
2022-08-09T03:47:46.261Z,0.00
2022-08-09T03:48:42.944Z,0.00
2022-08-09T03:49:40.869Z,0.00
2022-08-09T03:50:41.130Z,0.00
2022-08-09T03:51:55.588Z,0.00
2022-08-09T03:52:41.759Z,0.00
2022-08-09T03:53:39.841Z,0.00
2022-08-09T03:54:39.812Z,0.00
2022-08-09T03:55:40.722Z,0.00
2022-08-09T03:56:41.103Z,0.00
2022-08-09T03:57:53.409Z,0.00
2022-08-09T03:58:40.762Z,0.00
2022-08-09T03:59:43.256Z,0.00
2022-08-09T04:00:40.767Z,0.00
2022-08-09T04:01:39.738Z,0.00
2022-08-09T04:02:39.722Z,0.00
2022-08-09T04:03:46.189Z,0.00
2022-08-09T04:04:40.712Z,0.00
2022-08-09T04:05:40.734Z,0.00
2022-08-09T04:06:39.671Z,0.00
2022-08-09T04:07:52.640Z,0.00
2022-08-09T04:08:40.674Z,0.00
2022-08-09T04:09:44.416Z,0.00
2022-08-09T04:10:40.647Z,0.00
2022-08-09T04:11:39.613Z,0.00
2022-08-09T04:12:39.603Z,0.00
2022-08-09T04:14:36.666Z,0.00
2022-08-09T04:15:00.948Z,0.00
2022-08-09T04:16:17.623Z,0.00
2022-08-09T04:16:40.558Z,0.00
2022-08-09T04:17:39.562Z,0.00
2022-08-09T04:18:39.536Z,0.00
2022-08-09T04:19:50.837Z,5.62
2022-08-09T04:20:40.518Z,5.62
2022-08-09T04:21:40.279Z,5.62
2022-08-09T04:22:41.264Z,5.62
2022-08-09T04:23:39.473Z,5.62
2022-08-09T04:24:39.460Z,5.62
2022-08-09T04:25:39.449Z,5.62
2022-08-09T04:26:39.490Z,5.62
2022-08-09T04:27:39.419Z,5.62
2022-08-09T04:28:42.334Z,5.62
2022-08-09T04:29:40.411Z,5.62
2022-08-09T04:30:42.758Z,5.62
2022-08-09T04:31:46.685Z,5.62
2022-08-09T04:32:40.546Z,5.62
2022-08-09T04:33:53.144Z,5.62
2022-08-09T04:34:40.356Z,11.25
2022-08-09T04:35:40.338Z,11.25
2022-08-09T04:36:42.436Z,11.25
2022-08-09T04:37:45.789Z,11.25
2022-08-09T04:38:40.291Z,11.25
2022-08-09T04:39:40.723Z,11.25
2022-08-09T04:40:39.300Z,11.25
2022-08-09T04:41:43.830Z,11.25
2022-08-09T04:42:39.250Z,11.25
2022-08-09T04:43:53.966Z,11.25
2022-08-09T04:44:40.221Z,11.25
2022-08-09T04:45:53.593Z,11.25
2022-08-09T04:46:57.374Z,16.88
2022-08-09T04:47:58.778Z,16.88
2022-08-09T04:48:40.172Z,16.88
2022-08-09T04:49:53.072Z,16.88
2022-08-09T04:50:40.156Z,22.50
2022-08-09T04:51:39.159Z,22.50
2022-08-09T04:52:39.132Z,22.50
2022-08-09T04:53:39.111Z,22.50
2022-08-09T04:54:39.109Z,22.50
2022-08-09T04:55:43.601Z,22.50
2022-08-09T04:56:40.101Z,28.12
2022-08-09T04:57:53.737Z,28.12
2022-08-09T04:58:40.058Z,28.12
2022-08-09T04:59:39.053Z,33.75
2022-08-09T05:00:39.020Z,33.75
2022-08-09T05:01:39.027Z,33.75
2022-08-09T05:02:39.021Z,39.38
2022-08-09T05:03:42.260Z,39.38
2022-08-09T05:04:40.051Z,45.00
2022-08-09T05:05:51.782Z,50.62
2022-08-09T05:06:39.966Z,50.62
2022-08-09T05:07:38.973Z,61.88
2022-08-09T05:08:38.939Z,73.12
2022-08-09T05:09:42.203Z,84.38
2022-08-09T05:10:39.931Z,95.62
2022-08-09T05:11:38.915Z,101.25
2022-08-09T05:12:39.010Z,118.12
2022-08-09T05:13:39.198Z,129.38
2022-08-09T05:14:38.868Z,135.00
2022-08-09T05:15:47.705Z,151.88
2022-08-09T05:16:43.424Z,241.88
2022-08-09T05:18:42.521Z,343.12
2022-08-09T05:18:58.577Z,360.00
2022-08-09T05:19:45.996Z,298.12
2022-08-09T05:20:39.807Z,230.62
2022-08-09T05:21:46.970Z,219.38
2022-08-09T05:23:53.597Z,230.62
2022-08-09T05:23:53.658Z,236.25
2022-08-09T05:24:39.759Z,241.88
2022-08-09T05:25:38.743Z,253.12
2022-08-09T05:26:46.239Z,281.25
2022-08-09T05:27:45.423Z,393.75
2022-08-09T05:28:39.722Z,466.88
2022-08-09T05:29:38.697Z,466.88
2022-08-09T05:30:38.677Z,478.12
2022-08-09T05:31:46.779Z,421.88
2022-08-09T05:32:39.643Z,337.50
2022-08-09T05:33:42.473Z,292.50
2022-08-09T05:34:38.631Z,309.38
2022-08-09T05:35:49.895Z,315.00
2022-08-09T05:36:39.609Z,320.62
2022-08-09T05:37:47.649Z,303.75
2022-08-09T05:38:39.608Z,298.12
2022-08-09T05:39:43.775Z,348.75
2022-08-09T05:40:38.563Z,466.88
2022-08-09T05:41:38.551Z,500.62
2022-08-09T05:42:38.543Z,466.88
2022-08-09T05:43:38.540Z,444.38
2022-08-09T05:44:39.521Z,410.62
2022-08-09T05:45:52.773Z,320.62
2022-08-09T05:46:39.501Z,258.75
2022-08-09T05:47:45.553Z,253.12
2022-08-09T05:48:39.485Z,281.25
2022-08-09T05:50:30.348Z,286.88
2022-08-09T05:50:51.202Z,270.00
2022-08-09T05:51:43.226Z,264.38
2022-08-09T05:52:39.426Z,253.12
2022-08-09T05:53:51.629Z,253.12
2022-08-09T05:54:39.402Z,253.12
2022-08-09T05:55:38.398Z,258.75
2022-08-09T05:56:38.383Z,258.75
2022-08-09T05:57:51.037Z,264.38
2022-08-09T05:58:39.364Z,270.00
2022-08-09T05:59:38.352Z,275.62
2022-08-09T06:00:38.325Z,286.88
2022-08-09T06:01:42.652Z,292.50
2022-08-09T06:02:38.350Z,292.50
2022-08-09T06:03:44.057Z,298.12
2022-08-09T06:04:44.760Z,298.12
2022-08-09T06:05:54.672Z,303.75
2022-08-09T06:06:41.683Z,303.75
2022-08-09T06:07:39.248Z,303.75
2022-08-09T06:08:38.267Z,298.12
2022-08-09T06:09:54.306Z,298.12
2022-08-09T06:10:39.204Z,298.12
2022-08-09T06:11:41.068Z,298.12
2022-08-09T06:12:39.197Z,303.75
2022-08-09T06:13:38.205Z,315.00
2022-08-09T06:14:38.166Z,320.62
2022-08-09T06:15:38.167Z,320.62
2022-08-09T06:16:38.147Z,320.62
2022-08-09T06:17:39.928Z,331.88
2022-08-09T06:18:38.147Z,343.12
2022-08-09T06:19:38.123Z,354.38
2022-08-09T06:20:38.111Z,365.62
2022-08-09T06:21:39.661Z,405.00
2022-08-09T06:22:39.080Z,483.75
2022-08-09T06:23:57.387Z,495.00
2022-08-09T06:24:39.069Z,388.12
2022-08-09T06:25:38.046Z,433.12
2022-08-09T06:26:38.028Z,382.50
2022-08-09T06:27:42.239Z,382.50
2022-08-09T06:28:38.026Z,393.75
2022-08-09T06:29:48.170Z,388.12
2022-08-09T06:30:38.982Z,405.00
2022-08-09T06:31:39.235Z,438.75
2022-08-09T06:32:59.428Z,466.88
2022-08-09T06:33:41.304Z,405.00
2022-08-09T06:34:37.950Z,371.25
2022-08-09T06:35:56.783Z,286.88
2022-08-09T06:36:43.878Z,275.62
2022-08-09T06:37:53.115Z,275.62
2022-08-09T06:38:38.898Z,286.88
2022-08-09T06:39:57.861Z,286.88
2022-08-09T06:40:38.927Z,298.12
2022-08-09T06:42:07.714Z,309.38
2022-08-09T06:42:45.135Z,343.12
2022-08-09T06:43:39.744Z,360.00
2022-08-09T06:44:37.900Z,360.00
2022-08-09T06:46:06.666Z,376.88
2022-08-09T06:46:40.219Z,416.25
2022-08-09T06:47:39.771Z,545.62
2022-08-09T06:48:42.698Z,596.25
2022-08-09T06:50:11.935Z,579.38
2022-08-09T06:50:38.782Z,551.25
2022-08-09T06:51:39.076Z,534.38
2022-08-09T06:52:37.737Z,506.25
2022-08-09T06:53:38.187Z,478.12
2022-08-09T06:54:37.726Z,478.12
2022-08-09T06:55:37.707Z,466.88
2022-08-09T06:56:37.687Z,421.88
2022-08-09T06:58:01.507Z,393.75
2022-08-09T07:00:47.384Z,450.00
2022-08-09T07:00:49.734Z,393.75
2022-08-09T07:00:50.843Z,523.12
2022-08-09T07:01:54.610Z,450.00
2022-08-09T07:02:38.691Z,399.38
2022-08-09T07:03:39.710Z,382.50
2022-08-09T07:04:38.590Z,450.00
2022-08-09T07:06:02.638Z,866.25
2022-08-09T07:06:38.590Z,900.00
2022-08-09T07:08:00.694Z,466.88
2022-08-09T07:08:39.622Z,427.50
2022-08-09T07:09:57.374Z,573.75
2022-08-09T07:10:38.552Z,748.12
2022-08-09T07:11:45.461Z,849.38
2022-08-09T07:12:41.275Z,905.62
2022-08-09T07:13:45.217Z,708.75
2022-08-09T07:14:38.482Z,320.62
2022-08-09T07:16:38.506Z,292.50
2022-08-09T07:16:42.610Z,303.75
2022-08-09T07:17:39.822Z,292.50
2022-08-09T07:18:38.705Z,281.25
2022-08-09T07:19:37.433Z,281.25
2022-08-09T07:20:39.568Z,275.62
2022-08-09T07:21:38.418Z,264.38
2022-08-09T07:22:42.112Z,258.75
2022-08-09T07:23:56.663Z,258.75
2022-08-09T07:24:40.113Z,253.12
2022-08-09T07:25:38.917Z,258.75
2022-08-09T07:26:38.358Z,253.12
2022-08-09T07:27:42.959Z,247.50
2022-08-09T07:28:38.327Z,241.88
2022-08-09T07:29:42.966Z,236.25
2022-08-09T07:30:37.306Z,230.62
2022-08-09T07:31:38.597Z,219.38
2022-08-09T07:32:38.471Z,219.38
2022-08-09T07:33:52.920Z,219.38
2022-08-09T07:34:38.275Z,213.75
2022-08-09T07:35:39.679Z,208.12
2022-08-09T07:36:38.228Z,208.12
2022-08-09T07:37:43.215Z,202.50
2022-08-09T07:38:38.208Z,196.88
2022-08-09T07:39:41.040Z,196.88
2022-08-09T07:41:00.908Z,191.25
2022-08-09T07:41:38.603Z,191.25
2022-08-09T07:42:37.170Z,180.00
2022-08-09T07:43:41.150Z,174.38
2022-08-09T07:44:53.117Z,174.38
2022-08-09T07:45:40.559Z,174.38
2022-08-09T07:46:37.112Z,174.38
2022-08-09T07:47:39.575Z,174.38
2022-08-09T07:48:39.158Z,168.75
2022-08-09T07:50:04.501Z,225.00
2022-08-09T07:50:38.073Z,511.88
2022-08-09T07:52:05.448Z,180.00
2022-08-09T07:52:38.048Z,174.38
2022-08-09T07:54:07.594Z,573.75
2022-08-09T07:54:38.027Z,180.00
2022-08-09T07:55:41.340Z,168.75
2022-08-09T07:56:45.018Z,163.12
2022-08-09T07:57:37.999Z,157.50
2022-08-09T07:58:38.004Z,157.50
2022-08-09T07:59:51.924Z,185.62
2022-08-09T08:00:38.106Z,180.00
2022-08-09T08:01:38.003Z,185.62
2022-08-09T08:02:42.405Z,180.00
2022-08-09T08:03:37.915Z,180.00
2022-08-09T08:04:37.332Z,168.75
2022-08-09T08:05:39.149Z,174.38
2022-08-09T08:06:47.571Z,185.62
2022-08-09T08:08:44.478Z,191.25
2022-08-09T08:09:02.258Z,180.00
2022-08-09T08:09:38.664Z,185.62
2022-08-09T08:10:37.851Z,180.00
2022-08-09T08:12:12.018Z,174.38
2022-08-09T08:12:43.384Z,163.12
2022-08-09T08:13:41.297Z,157.50
2022-08-09T08:14:37.809Z,157.50
2022-08-09T08:15:39.296Z,151.88
2022-08-09T08:16:36.806Z,146.25
2022-08-09T08:17:53.090Z,146.25
2022-08-09T08:18:37.749Z,140.62
2022-08-09T08:19:36.749Z,140.62
2022-08-09T08:20:36.738Z,140.62
2022-08-09T08:21:39.460Z,140.62
2022-08-09T08:22:36.701Z,140.62
2022-08-09T08:23:36.692Z,140.62
2022-08-09T08:24:40.622Z,135.00
2022-08-09T08:25:40.425Z,135.00
2022-08-09T08:26:42.119Z,135.00
2022-08-09T08:27:40.444Z,135.00
2022-08-09T08:28:36.634Z,135.00
2022-08-09T08:29:39.574Z,135.00
2022-08-09T08:30:39.053Z,135.00
2022-08-09T08:31:39.615Z,135.00
2022-08-09T08:32:41.474Z,135.00
2022-08-09T08:33:52.094Z,135.00
2022-08-09T08:34:37.570Z,135.00
2022-08-09T08:35:52.910Z,129.38
2022-08-09T08:36:37.565Z,129.38
2022-08-09T08:37:41.467Z,129.38
2022-08-09T08:38:37.525Z,129.38
2022-08-09T08:39:39.829Z,129.38
2022-08-09T08:40:37.496Z,129.38
2022-08-09T08:41:50.714Z,129.38
2022-08-09T08:42:37.479Z,129.38
2022-08-09T08:43:36.460Z,129.38
2022-08-09T08:44:36.447Z,129.38
2022-08-09T08:45:37.629Z,129.38
2022-08-09T08:46:59.814Z,123.75
2022-08-09T08:47:38.526Z,123.75
2022-08-09T08:48:37.415Z,123.75
2022-08-09T08:49:47.388Z,123.75
2022-08-09T08:50:37.381Z,123.75
2022-08-09T08:51:40.246Z,123.75
2022-08-09T08:52:59.142Z,123.75
2022-08-09T08:53:37.551Z,123.75
2022-08-09T08:54:37.335Z,123.75
2022-08-09T08:55:36.321Z,123.75
2022-08-09T08:56:36.370Z,123.75
2022-08-09T08:57:37.553Z,118.12
2022-08-09T08:58:36.290Z,118.12
2022-08-09T08:59:46.626Z,118.12
2022-08-09T09:00:37.276Z,118.12
2022-08-09T09:01:51.917Z,118.12
2022-08-09T09:02:37.455Z,118.12
2022-08-09T09:03:37.965Z,118.12
2022-08-09T09:04:47.429Z,118.12
2022-08-09T09:05:58.767Z,112.50
2022-08-09T09:06:37.207Z,118.12
2022-08-09T09:07:36.763Z,112.50
2022-08-09T09:08:40.962Z,112.50
2022-08-09T09:09:58.443Z,112.50
2022-08-09T09:10:37.175Z,112.50
2022-08-09T09:11:38.486Z,112.50
2022-08-09T09:12:36.326Z,112.50
2022-08-09T09:13:50.250Z,112.50
2022-08-09T09:14:37.121Z,112.50
2022-08-09T09:15:36.100Z,112.50
2022-08-09T09:16:36.112Z,112.50
2022-08-09T09:17:49.363Z,112.50
2022-08-09T09:18:37.088Z,112.50
2022-08-09T09:19:41.271Z,112.50
2022-08-09T09:20:37.044Z,112.50
2022-08-09T09:21:43.297Z,112.50
2022-08-09T09:22:37.270Z,112.50
2022-08-09T09:23:37.978Z,112.50
2022-08-09T09:24:38.017Z,112.50
2022-08-09T09:26:01.189Z,112.50
2022-08-09T09:26:36.969Z,112.50
2022-08-09T09:28:06.626Z,112.50
2022-08-09T09:29:02.497Z,106.88
2022-08-09T09:30:08.480Z,106.88
2022-08-09T09:30:41.334Z,106.88
2022-08-09T09:32:03.571Z,106.88
2022-08-09T09:32:37.171Z,106.88
2022-08-09T09:33:44.352Z,106.88
2022-08-09T09:34:36.881Z,106.88
2022-08-09T09:35:35.873Z,106.88
2022-08-09T09:36:35.861Z,106.88
2022-08-09T09:37:35.842Z,106.88
2022-08-09T09:38:36.676Z,106.88
2022-08-09T09:39:42.767Z,101.25
2022-08-09T09:40:36.857Z,101.25
2022-08-09T09:41:49.716Z,101.25
2022-08-09T09:42:36.908Z,101.25
2022-08-09T09:43:41.206Z,101.25
2022-08-09T09:44:36.893Z,101.25
2022-08-09T09:45:57.052Z,101.25
2022-08-09T09:46:42.613Z,101.25
2022-08-09T09:47:47.897Z,101.25
2022-08-09T09:48:36.714Z,101.25
2022-08-09T09:50:13.717Z,101.25
2022-08-09T09:50:36.719Z,101.25
2022-08-09T09:51:38.391Z,101.25
2022-08-09T09:52:37.326Z,95.62
2022-08-09T09:53:57.542Z,95.62
2022-08-09T09:54:36.653Z,95.62
2022-08-09T09:55:35.658Z,95.62
2022-08-09T09:56:35.630Z,95.62
2022-08-09T09:58:02.411Z,95.62
2022-08-09T09:58:37.316Z,95.62
2022-08-09T09:59:35.824Z,95.62
2022-08-09T10:00:35.627Z,95.62
2022-08-09T10:01:37.980Z,95.62
2022-08-09T10:02:35.573Z,95.62
2022-08-09T10:03:35.590Z,95.62
2022-08-09T10:04:35.558Z,95.62
2022-08-09T10:06:03.310Z,95.62
2022-08-09T10:06:36.540Z,95.62
2022-08-09T10:07:35.500Z,95.62
2022-08-09T10:08:43.276Z,95.62
2022-08-09T10:09:36.468Z,95.62
2022-08-09T10:10:35.489Z,95.62
2022-08-09T10:12:00.243Z,95.62
2022-08-09T10:12:36.451Z,95.62
2022-08-09T10:13:43.105Z,95.62
2022-08-09T10:14:36.430Z,95.62
2022-08-09T10:16:09.175Z,90.00
2022-08-09T10:16:58.346Z,90.00
2022-08-09T10:17:55.151Z,90.00
2022-08-09T10:18:36.386Z,84.38
2022-08-09T10:19:35.372Z,84.38
2022-08-09T10:20:44.555Z,84.38
2022-08-09T10:21:36.342Z,84.38
2022-08-09T10:22:35.430Z,84.38
2022-08-09T10:23:35.314Z,84.38
2022-08-09T10:24:35.960Z,84.38
2022-08-09T10:26:07.374Z,78.75
2022-08-09T10:26:36.280Z,78.75
2022-08-09T10:27:38.574Z,78.75
2022-08-09T10:28:36.275Z,78.75
2022-08-09T10:30:49.490Z,78.75
2022-08-09T10:32:40.351Z,78.75
2022-08-09T10:34:09.005Z,78.75
2022-08-09T10:34:36.289Z,78.75
2022-08-09T10:35:35.189Z,78.75
2022-08-09T10:36:35.528Z,78.75
2022-08-09T10:37:38.351Z,78.75
2022-08-09T10:38:54.995Z,73.12
2022-08-09T10:39:40.952Z,73.12
2022-08-09T10:40:40.970Z,73.12
2022-08-09T10:41:36.118Z,73.12
2022-08-09T10:42:35.126Z,73.12
2022-08-09T10:43:44.408Z,73.12
2022-08-09T10:44:36.101Z,73.12
2022-08-09T10:45:35.644Z,73.12
2022-08-09T10:46:43.552Z,73.12
2022-08-09T10:48:19.450Z,67.50
2022-08-09T10:48:36.773Z,67.50
2022-08-09T10:49:50.211Z,67.50
2022-08-09T10:50:36.020Z,67.50
2022-08-09T10:51:41.001Z,67.50
2022-08-09T10:52:36.475Z,67.50
2022-08-09T10:53:38.070Z,67.50
2022-08-09T10:54:35.001Z,67.50
2022-08-09T10:55:49.202Z,67.50
2022-08-09T10:56:35.958Z,61.88
2022-08-09T10:57:36.283Z,61.88
2022-08-09T10:58:37.319Z,61.88
2022-08-09T10:59:55.417Z,61.88
2022-08-09T11:00:35.922Z,61.88
2022-08-09T11:03:10.673Z,61.88
2022-08-09T11:03:13.309Z,61.88
2022-08-09T11:03:49.795Z,61.88
2022-08-09T11:04:35.953Z,61.88
2022-08-09T11:05:34.923Z,61.88
2022-08-09T11:06:34.837Z,61.88
2022-08-09T11:07:57.121Z,61.88
2022-08-09T11:08:35.819Z,61.88
2022-08-09T11:09:37.343Z,61.88
2022-08-09T11:10:34.800Z,61.88
2022-08-09T11:11:34.807Z,61.88
2022-08-09T11:12:36.315Z,61.88
2022-08-09T11:13:50.085Z,61.88
2022-08-09T11:14:35.762Z,61.88
2022-08-09T11:15:38.351Z,61.88
2022-08-09T11:16:37.120Z,61.88
2022-08-09T11:17:34.717Z,56.25
2022-08-09T11:18:35.710Z,56.25
2022-08-09T11:20:10.599Z,56.25
2022-08-09T11:20:35.690Z,56.25
2022-08-09T11:21:34.682Z,56.25
2022-08-09T11:22:35.982Z,56.25
2022-08-09T11:23:34.650Z,56.25
2022-08-09T11:24:34.643Z,56.25
2022-08-09T11:25:44.633Z,56.25
2022-08-09T11:26:35.623Z,56.25
2022-08-09T11:28:03.222Z,56.25
2022-08-09T11:28:38.686Z,56.25
2022-08-09T11:30:01.164Z,56.25
2022-08-09T11:30:36.380Z,56.25
2022-08-09T11:31:36.781Z,56.25
2022-08-09T11:32:34.634Z,56.25
2022-08-09T11:33:34.543Z,56.25
2022-08-09T11:34:34.944Z,56.25
2022-08-09T11:35:35.247Z,56.25
2022-08-09T11:36:36.834Z,56.25
2022-08-09T11:37:41.412Z,56.25
2022-08-09T11:38:35.502Z,56.25
2022-08-09T11:39:38.562Z,50.62
2022-08-09T11:40:34.464Z,50.62
2022-08-09T11:41:37.500Z,50.62
2022-08-09T11:42:34.816Z,50.62
2022-08-09T11:43:34.428Z,50.62
2022-08-09T11:44:34.445Z,50.62
2022-08-09T11:45:42.802Z,50.62
2022-08-09T11:46:35.390Z,50.62
2022-08-09T11:47:35.087Z,50.62
2022-08-09T11:48:36.009Z,50.62
2022-08-09T11:49:42.698Z,50.62
2022-08-09T11:50:52.956Z,50.62
2022-08-09T11:52:49.441Z,50.62
2022-08-09T11:53:11.422Z,50.62
2022-08-09T11:53:58.485Z,50.62
2022-08-09T11:54:35.569Z,50.62
2022-08-09T11:55:51.469Z,50.62
2022-08-09T11:56:42.437Z,50.62
2022-08-09T11:57:47.535Z,50.62
2022-08-09T11:58:35.272Z,50.62
2022-08-09T11:59:34.266Z,50.62
2022-08-09T12:00:34.233Z,50.62
2022-08-09T12:01:37.698Z,50.62
2022-08-09T12:02:39.715Z,50.62
2022-08-09T12:03:55.351Z,50.62
2022-08-09T12:04:37.562Z,50.62
2022-08-09T12:05:37.905Z,50.62
2022-08-09T12:06:35.478Z,50.62
2022-08-09T12:07:41.477Z,50.62
2022-08-09T12:08:35.144Z,50.62
2022-08-09T12:09:34.221Z,50.62
2022-08-09T12:10:39.340Z,45.00
2022-08-09T12:11:44.685Z,45.00
2022-08-09T12:12:35.102Z,45.00
2022-08-09T12:14:08.351Z,45.00
2022-08-09T12:14:37.183Z,45.00
2022-08-09T12:15:50.107Z,45.00
2022-08-09T12:16:38.118Z,45.00
2022-08-09T12:17:44.526Z,45.00
2022-08-09T12:18:35.034Z,50.62
2022-08-09T12:19:34.036Z,50.62
2022-08-09T12:20:34.037Z,50.62
2022-08-09T12:21:38.678Z,45.00
2022-08-09T12:22:35.184Z,45.00
2022-08-09T12:23:58.678Z,45.00
2022-08-09T12:24:35.023Z,45.00
2022-08-09T12:25:37.322Z,45.00
2022-08-09T12:26:33.958Z,45.00
2022-08-09T12:29:09.880Z,45.00
2022-08-09T12:29:13.078Z,45.00
2022-08-09T12:29:51.482Z,45.00
2022-08-09T12:30:38.672Z,45.00
2022-08-09T12:31:58.554Z,50.62
2022-08-09T12:32:35.125Z,50.62
2022-08-09T12:33:51.355Z,50.62
2022-08-09T12:34:34.862Z,50.62
2022-08-09T12:35:40.244Z,50.62
2022-08-09T12:36:36.233Z,50.62
2022-08-09T12:37:33.824Z,50.62
2022-08-09T12:38:38.171Z,50.62
2022-08-09T12:39:33.834Z,50.62
2022-08-09T12:40:33.798Z,50.62
2022-08-09T12:41:39.608Z,50.62
2022-08-09T12:42:35.056Z,50.62
2022-08-09T12:44:04.891Z,50.62
2022-08-09T12:44:37.347Z,50.62
2022-08-09T12:45:38.800Z,50.62
2022-08-09T12:46:34.740Z,50.62
2022-08-09T12:47:37.286Z,56.25
2022-08-09T12:48:37.314Z,56.25
2022-08-09T12:49:33.687Z,56.25
2022-08-09T12:50:33.691Z,61.88
2022-08-09T12:51:59.898Z,61.88
2022-08-09T12:52:40.300Z,61.88
2022-08-09T12:53:37.647Z,61.88
2022-08-09T12:54:33.629Z,61.88